EPWA/WAW METAR and TAF weather

Enter ICAO airport designator
Station Type Date Time Source
EPWA METAR 2019/05/25 09:30 UTC NOAA

EPWA 250930Z 29007KT 250V320 9999 FEW040 21/09 Q1011 NOSIG


Station Type Date Time Source
EPWA Decoded METAR 2019/05/25 09:30 UTC NOAA

Warszawa-Okecie, Poland (EPWA) 52-10N 020-58E 107M
May 25, 2019 - 05:30 AM EDT / 2019.05.25 0930 UTC
Wind: from the WNW (290 degrees) at 8 MPH (7 KT) (direction variable):0
Visibility: greater than 7 mile(s):0
Sky conditions: mostly clear
Temperature: 69 F (21 C)
Dew Point: 48 F (9 C)
Relative Humidity: 46%
Pressure (altimeter): 29.85 in. Hg (1011 hPa)
ob: EPWA 250930Z 29007KT 250V320 9999 FEW040 21/09 Q1011 NOSIG
cycle: 9

Station Type Date Time Source
EPWA TAF 2019/05/25 09:33 UTC NOAA

TAF EPWA 250830Z 2509/2609 28010KT CAVOK PROB40
TEMPO 2511/2517 31015G27KT SCT033CB

Example: see airport list